sensor_id;sensor_type;location;lat;lon;timestamp;P1;durP1;ratioP1;P2;durP2;ratioP2
23402;SDS011;11874;48.228;11.684;2022-07-30T00:02:01;3.65;;;2.40;;
23402;SDS011;11874;48.228;11.684;2022-07-30T00:04:29;3.67;;;2.13;;
23402;SDS011;11874;48.228;11.684;2022-07-30T00:06:57;2.58;;;2.00;;
23402;SDS011;11874;48.228;11.684;2022-07-30T00:09:26;2.47;;;1.90;;
23402;SDS011;11874;48.228;11.684;2022-07-30T00:11:59;2.50;;;1.63;;
23402;SDS011;11874;48.228;11.684;2022-07-30T00:14:27;1.95;;;1.80;;
23402;SDS011;11874;48.228;11.684;2022-07-30T00:16:55;2.38;;;1.90;;
23402;SDS011;11874;48.228;11.684;2022-07-30T00:19:26;2.95;;;1.98;;
23402;SDS011;11874;48.228;11.684;2022-07-30T00:21:55;1.77;;;1.65;;
23402;SDS011;11874;48.228;11.684;2022-07-30T00:24:23;2.25;;;1.80;;
23402;SDS011;11874;48.228;11.684;2022-07-30T00:26:51;2.22;;;2.03;;
23402;SDS011;11874;48.228;11.684;2022-07-30T00:29:19;2.60;;;1.85;;
23402;SDS011;11874;48.228;11.684;2022-07-30T00:31:47;4.75;;;1.90;;
23402;SDS011;11874;48.228;11.684;2022-07-30T00:34:14;2.38;;;1.80;;
23402;SDS011;11874;48.228;11.684;2022-07-30T00:36:44;2.40;;;1.60;;
23402;SDS011;11874;48.228;11.684;2022-07-30T00:39:11;3.78;;;1.55;;
23402;SDS011;11874;48.228;11.684;2022-07-30T00:41:52;2.08;;;1.67;;
23402;SDS011;11874;48.228;11.684;2022-07-30T00:44:24;1.88;;;1.60;;
23402;SDS011;11874;48.228;11.684;2022-07-30T00:46:53;2.50;;;1.65;;
23402;SDS011;11874;48.228;11.684;2022-07-30T00:49:23;1.67;;;1.58;;
23402;SDS011;11874;48.228;11.684;2022-07-30T00:51:53;1.90;;;1.45;;
23402;SDS011;11874;48.228;11.684;2022-07-30T00:54:21;2.25;;;1.65;;
23402;SDS011;11874;48.228;11.684;2022-07-30T00:56:49;1.83;;;1.63;;
23402;SDS011;11874;48.228;11.684;2022-07-30T00:59:17;4.00;;;1.75;;
23402;SDS011;11874;48.228;11.684;2022-07-30T01:01:45;1.75;;;1.60;;
23402;SDS011;11874;48.228;11.684;2022-07-30T01:04:13;1.50;;;1.40;;
23402;SDS011;11874;48.228;11.684;2022-07-30T01:06:41;1.70;;;1.23;;
23402;SDS011;11874;48.228;11.684;2022-07-30T01:09:10;1.75;;;1.50;;
23402;SDS011;11874;48.228;11.684;2022-07-30T01:11:38;1.65;;;1.55;;
23402;SDS011;11874;48.228;11.684;2022-07-30T01:14:08;2.35;;;1.50;;
23402;SDS011;11874;48.228;11.684;2022-07-30T01:16:36;1.63;;;1.52;;
23402;SDS011;11874;48.228;11.684;2022-07-30T01:19:08;4.18;;;1.70;;
23402;SDS011;11874;48.228;11.684;2022-07-30T01:24:32;4.65;;;1.63;;
23402;SDS011;11874;48.228;11.684;2022-07-30T01:27:05;2.30;;;1.58;;
23402;SDS011;11874;48.228;11.684;2022-07-30T01:29:34;1.70;;;1.30;;
23402;SDS011;11874;48.228;11.684;2022-07-30T01:32:05;3.17;;;1.80;;
23402;SDS011;11874;48.228;11.684;2022-07-30T01:34:35;2.00;;;1.80;;
23402;SDS011;11874;48.228;11.684;2022-07-30T01:37:04;3.03;;;1.60;;
23402;SDS011;11874;48.228;11.684;2022-07-30T01:39:34;2.63;;;2.05;;
23402;SDS011;11874;48.228;11.684;2022-07-30T01:42:06;1.65;;;1.55;;
23402;SDS011;11874;48.228;11.684;2022-07-30T01:44:36;2.10;;;1.80;;
23402;SDS011;11874;48.228;11.684;2022-07-30T01:47:07;2.15;;;1.80;;
23402;SDS011;11874;48.228;11.684;2022-07-30T01:49:37;2.08;;;1.40;;
23402;SDS011;11874;48.228;11.684;2022-07-30T01:52:06;1.80;;;1.70;;
23402;SDS011;11874;48.228;11.684;2022-07-30T01:54:35;2.70;;;1.65;;
23402;SDS011;11874;48.228;11.684;2022-07-30T01:57:06;1.92;;;1.80;;
23402;SDS011;11874;48.228;11.684;2022-07-30T01:59:35;3.33;;;1.55;;
23402;SDS011;11874;48.228;11.684;2022-07-30T02:02:06;3.80;;;1.60;;
23402;SDS011;11874;48.228;11.684;2022-07-30T02:04:34;1.90;;;1.80;;
23402;SDS011;11874;48.228;11.684;2022-07-30T02:07:03;2.10;;;1.83;;
23402;SDS011;11874;48.228;11.684;2022-07-30T02:09:42;2.60;;;1.80;;
23402;SDS011;11874;48.228;11.684;2022-07-30T02:12:18;3.72;;;1.90;;
23402;SDS011;11874;48.228;11.684;2022-07-30T02:14:56;2.92;;;1.55;;
23402;SDS011;11874;48.228;11.684;2022-07-30T02:17:35;4.40;;;1.92;;
23402;SDS011;11874;48.228;11.684;2022-07-30T02:20:10;2.30;;;1.60;;
23402;SDS011;11874;48.228;11.684;2022-07-30T02:22:41;2.17;;;1.80;;
23402;SDS011;11874;48.228;11.684;2022-07-30T02:25:12;2.10;;;1.90;;
23402;SDS011;11874;48.228;11.684;2022-07-30T02:27:49;1.98;;;1.77;;
23402;SDS011;11874;48.228;11.684;2022-07-30T02:30:21;3.03;;;2.00;;
23402;SDS011;11874;48.228;11.684;2022-07-30T02:32:52;3.50;;;2.20;;
23402;SDS011;11874;48.228;11.684;2022-07-30T02:35:26;2.45;;;1.90;;
23402;SDS011;11874;48.228;11.684;2022-07-30T02:37:56;2.05;;;1.77;;
23402;SDS011;11874;48.228;11.684;2022-07-30T02:40:26;3.97;;;2.00;;
23402;SDS011;11874;48.228;11.684;2022-07-30T02:42:56;2.05;;;1.95;;
23402;SDS011;11874;48.228;11.684;2022-07-30T02:45:25;1.95;;;1.80;;
23402;SDS011;11874;48.228;11.684;2022-07-30T02:47:56;2.60;;;1.90;;
23402;SDS011;11874;48.228;11.684;2022-07-30T02:50:28;3.85;;;2.10;;
23402;SDS011;11874;48.228;11.684;2022-07-30T02:52:58;5.00;;;2.33;;
23402;SDS011;11874;48.228;11.684;2022-07-30T02:55:28;2.17;;;1.95;;
23402;SDS011;11874;48.228;11.684;2022-07-30T02:57:59;3.50;;;2.30;;
23402;SDS011;11874;48.228;11.684;2022-07-30T03:00:28;2.70;;;2.50;;
23402;SDS011;11874;48.228;11.684;2022-07-30T03:02:58;2.33;;;2.10;;
23402;SDS011;11874;48.228;11.684;2022-07-30T03:05:27;4.18;;;2.10;;
23402;SDS011;11874;48.228;11.684;2022-07-30T03:07:55;3.63;;;2.05;;
23402;SDS011;11874;48.228;11.684;2022-07-30T03:10:26;2.00;;;1.88;;
23402;SDS011;11874;48.228;11.684;2022-07-30T03:12:54;2.53;;;2.33;;
23402;SDS011;11874;48.228;11.684;2022-07-30T03:15:25;2.42;;;1.95;;
23402;SDS011;11874;48.228;11.684;2022-07-30T03:17:54;6.47;;;2.40;;
23402;SDS011;11874;48.228;11.684;2022-07-30T03:20:25;2.72;;;2.10;;
23402;SDS011;11874;48.228;11.684;2022-07-30T03:22:56;3.15;;;2.30;;
23402;SDS011;11874;48.228;11.684;2022-07-30T03:25:26;2.42;;;2.22;;
23402;SDS011;11874;48.228;11.684;2022-07-30T03:27:55;2.58;;;2.38;;
23402;SDS011;11874;48.228;11.684;2022-07-30T03:30:26;2.65;;;2.40;;
23402;SDS011;11874;48.228;11.684;2022-07-30T03:32:55;4.40;;;2.90;;
23402;SDS011;11874;48.228;11.684;2022-07-30T03:35:24;2.58;;;2.35;;
23402;SDS011;11874;48.228;11.684;2022-07-30T03:37:56;3.83;;;2.80;;
23402;SDS011;11874;48.228;11.684;2022-07-30T03:40:26;3.33;;;2.55;;
23402;SDS011;11874;48.228;11.684;2022-07-30T03:42:55;3.28;;;2.75;;
23402;SDS011;11874;48.228;11.684;2022-07-30T03:45:24;3.35;;;2.65;;
23402;SDS011;11874;48.228;11.684;2022-07-30T03:47:53;3.88;;;2.60;;
23402;SDS011;11874;48.228;11.684;2022-07-30T03:50:22;4.65;;;2.70;;
23402;SDS011;11874;48.228;11.684;2022-07-30T03:52:50;4.47;;;2.45;;
23402;SDS011;11874;48.228;11.684;2022-07-30T03:55:19;3.17;;;2.42;;
23402;SDS011;11874;48.228;11.684;2022-07-30T03:57:48;3.20;;;2.55;;
23402;SDS011;11874;48.228;11.684;2022-07-30T04:00:16;2.67;;;2.47;;
23402;SDS011;11874;48.228;11.684;2022-07-30T04:02:45;2.95;;;2.63;;
23402;SDS011;11874;48.228;11.684;2022-07-30T04:05:14;4.25;;;2.45;;
23402;SDS011;11874;48.228;11.684;2022-07-30T04:07:43;6.97;;;2.78;;
23402;SDS011;11874;48.228;11.684;2022-07-30T04:10:12;2.97;;;2.70;;
23402;SDS011;11874;48.228;11.684;2022-07-30T04:12:40;3.25;;;2.33;;
23402;SDS011;11874;48.228;11.684;2022-07-30T04:15:09;2.92;;;2.58;;
23402;SDS011;11874;48.228;11.684;2022-07-30T04:17:57;3.35;;;2.80;;
23402;SDS011;11874;48.228;11.684;2022-07-30T04:20:30;4.13;;;2.50;;
23402;SDS011;11874;48.228;11.684;2022-07-30T04:23:02;2.78;;;2.47;;
23402;SDS011;11874;48.228;11.684;2022-07-30T04:25:31;3.15;;;2.85;;
23402;SDS011;11874;48.228;11.684;2022-07-30T04:28:00;3.10;;;2.80;;
23402;SDS011;11874;48.228;11.684;2022-07-30T04:30:29;9.40;;;3.05;;
23402;SDS011;11874;48.228;11.684;2022-07-30T04:32:58;3.78;;;3.00;;
23402;SDS011;11874;48.228;11.684;2022-07-30T04:35:26;4.13;;;2.70;;
23402;SDS011;11874;48.228;11.684;2022-07-30T04:38:16;4.63;;;2.90;;
23402;SDS011;11874;48.228;11.684;2022-07-30T04:40:44;3.30;;;2.53;;
23402;SDS011;11874;48.228;11.684;2022-07-30T04:43:12;3.28;;;2.88;;
23402;SDS011;11874;48.228;11.684;2022-07-30T04:45:40;3.75;;;2.80;;
23402;SDS011;11874;48.228;11.684;2022-07-30T04:48:08;3.38;;;2.78;;
23402;SDS011;11874;48.228;11.684;2022-07-30T04:50:37;5.75;;;2.50;;
23402;SDS011;11874;48.228;11.684;2022-07-30T04:53:08;3.92;;;2.85;;
23402;SDS011;11874;48.228;11.684;2022-07-30T04:55:39;5.10;;;3.10;;
23402;SDS011;11874;48.228;11.684;2022-07-30T04:58:09;4.05;;;2.80;;
23402;SDS011;11874;48.228;11.684;2022-07-30T05:00:39;4.70;;;2.65;;
23402;SDS011;11874;48.228;11.684;2022-07-30T05:03:10;5.97;;;3.25;;
23402;SDS011;11874;48.228;11.684;2022-07-30T05:05:40;5.82;;;2.90;;
23402;SDS011;11874;48.228;11.684;2022-07-30T05:08:09;3.85;;;3.13;;
23402;SDS011;11874;48.228;11.684;2022-07-30T05:10:41;3.38;;;2.95;;
23402;SDS011;11874;48.228;11.684;2022-07-30T05:13:10;2.75;;;2.55;;
23402;SDS011;11874;48.228;11.684;2022-07-30T05:15:39;3.83;;;2.72;;
23402;SDS011;11874;48.228;11.684;2022-07-30T05:18:07;3.97;;;3.33;;
23402;SDS011;11874;48.228;11.684;2022-07-30T05:20:35;4.60;;;3.10;;
23402;SDS011;11874;48.228;11.684;2022-07-30T05:23:04;4.07;;;2.55;;
23402;SDS011;11874;48.228;11.684;2022-07-30T05:25:32;3.50;;;3.00;;
23402;SDS011;11874;48.228;11.684;2022-07-30T05:28:01;4.45;;;2.97;;
23402;SDS011;11874;48.228;11.684;2022-07-30T05:30:29;5.00;;;2.88;;
23402;SDS011;11874;48.228;11.684;2022-07-30T05:32:57;4.47;;;3.15;;
23402;SDS011;11874;48.228;11.684;2022-07-30T05:35:28;4.30;;;3.13;;
23402;SDS011;11874;48.228;11.684;2022-07-30T05:37:57;4.55;;;3.55;;
23402;SDS011;11874;48.228;11.684;2022-07-30T05:40:25;6.20;;;3.10;;
23402;SDS011;11874;48.228;11.684;2022-07-30T05:42:53;3.75;;;3.05;;
23402;SDS011;11874;48.228;11.684;2022-07-30T05:45:22;3.28;;;2.83;;
23402;SDS011;11874;48.228;11.684;2022-07-30T05:47:50;4.88;;;2.85;;
23402;SDS011;11874;48.228;11.684;2022-07-30T05:50:18;3.17;;;2.88;;
23402;SDS011;11874;48.228;11.684;2022-07-30T05:52:46;3.80;;;3.10;;
23402;SDS011;11874;48.228;11.684;2022-07-30T05:55:14;4.72;;;3.08;;
23402;SDS011;11874;48.228;11.684;2022-07-30T05:57:42;4.88;;;2.90;;
23402;SDS011;11874;48.228;11.684;2022-07-30T06:00:10;4.82;;;3.20;;
23402;SDS011;11874;48.228;11.684;2022-07-30T06:02:41;4.10;;;2.80;;
23402;SDS011;11874;48.228;11.684;2022-07-30T06:05:09;4.55;;;3.05;;
23402;SDS011;11874;48.228;11.684;2022-07-30T06:07:37;5.45;;;3.38;;
23402;SDS011;11874;48.228;11.684;2022-07-30T06:10:05;4.80;;;3.33;;
23402;SDS011;11874;48.228;11.684;2022-07-30T06:12:33;3.40;;;3.10;;
23402;SDS011;11874;48.228;11.684;2022-07-30T06:15:01;5.53;;;3.25;;
23402;SDS011;11874;48.228;11.684;2022-07-30T06:17:30;4.57;;;3.30;;
23402;SDS011;11874;48.228;11.684;2022-07-30T06:20:09;4.63;;;3.80;;
23402;SDS011;11874;48.228;11.684;2022-07-30T06:22:37;4.97;;;3.20;;
23402;SDS011;11874;48.228;11.684;2022-07-30T06:25:06;4.18;;;3.58;;
23402;SDS011;11874;48.228;11.684;2022-07-30T06:27:35;3.90;;;3.50;;
23402;SDS011;11874;48.228;11.684;2022-07-30T06:30:05;6.43;;;3.60;;
23402;SDS011;11874;48.228;11.684;2022-07-30T06:32:34;3.75;;;3.45;;
23402;SDS011;11874;48.228;11.684;2022-07-30T06:35:02;4.43;;;3.40;;
23402;SDS011;11874;48.228;11.684;2022-07-30T06:37:32;4.45;;;3.50;;
23402;SDS011;11874;48.228;11.684;2022-07-30T06:40:20;4.20;;;3.80;;
23402;SDS011;11874;48.228;11.684;2022-07-30T06:42:48;5.32;;;3.53;;
23402;SDS011;11874;48.228;11.684;2022-07-30T06:45:16;6.78;;;3.47;;
23402;SDS011;11874;48.228;11.684;2022-07-30T06:47:44;5.25;;;3.45;;
23402;SDS011;11874;48.228;11.684;2022-07-30T06:50:12;4.00;;;3.47;;
23402;SDS011;11874;48.228;11.684;2022-07-30T06:52:42;7.45;;;3.58;;
23402;SDS011;11874;48.228;11.684;2022-07-30T06:55:09;4.28;;;3.88;;
23402;SDS011;11874;48.228;11.684;2022-07-30T06:57:37;4.85;;;3.85;;
23402;SDS011;11874;48.228;11.684;2022-07-30T07:00:08;3.95;;;3.60;;
23402;SDS011;11874;48.228;11.684;2022-07-30T07:02:36;4.50;;;3.70;;
23402;SDS011;11874;48.228;11.684;2022-07-30T07:05:05;4.78;;;4.03;;
23402;SDS011;11874;48.228;11.684;2022-07-30T07:07:33;4.80;;;4.10;;
23402;SDS011;11874;48.228;11.684;2022-07-30T07:10:10;7.82;;;4.07;;
23402;SDS011;11874;48.228;11.684;2022-07-30T07:12:38;5.05;;;4.45;;
23402;SDS011;11874;48.228;11.684;2022-07-30T07:15:07;5.93;;;4.20;;
23402;SDS011;11874;48.228;11.684;2022-07-30T07:17:35;4.40;;;3.90;;
23402;SDS011;11874;48.228;11.684;2022-07-30T07:20:03;4.60;;;4.20;;
23402;SDS011;11874;48.228;11.684;2022-07-30T07:22:32;5.03;;;4.30;;
23402;SDS011;11874;48.228;11.684;2022-07-30T07:25:00;4.55;;;4.05;;
23402;SDS011;11874;48.228;11.684;2022-07-30T07:27:29;5.43;;;4.47;;
23402;SDS011;11874;48.228;11.684;2022-07-30T07:29:58;5.93;;;4.50;;
23402;SDS011;11874;48.228;11.684;2022-07-30T07:32:31;6.75;;;4.65;;
23402;SDS011;11874;48.228;11.684;2022-07-30T07:34:59;6.38;;;5.00;;
23402;SDS011;11874;48.228;11.684;2022-07-30T07:37:27;7.03;;;5.60;;
23402;SDS011;11874;48.228;11.684;2022-07-30T07:39:55;10.27;;;5.30;;
23402;SDS011;11874;48.228;11.684;2022-07-30T07:42:22;7.55;;;5.10;;
23402;SDS011;11874;48.228;11.684;2022-07-30T07:44:52;7.30;;;4.63;;
23402;SDS011;11874;48.228;11.684;2022-07-30T07:47:19;6.30;;;5.00;;
23402;SDS011;11874;48.228;11.684;2022-07-30T07:49:47;6.45;;;5.85;;
23402;SDS011;11874;48.228;11.684;2022-07-30T07:52:15;9.18;;;5.28;;
23402;SDS011;11874;48.228;11.684;2022-07-30T07:54:43;6.38;;;5.43;;
23402;SDS011;11874;48.228;11.684;2022-07-30T07:57:11;6.00;;;5.10;;
23402;SDS011;11874;48.228;11.684;2022-07-30T07:59:40;6.20;;;5.60;;
23402;SDS011;11874;48.228;11.684;2022-07-30T08:02:09;8.40;;;5.55;;
23402;SDS011;11874;48.228;11.684;2022-07-30T08:04:37;6.22;;;5.63;;
23402;SDS011;11874;48.228;11.684;2022-07-30T08:07:05;9.73;;;6.25;;
23402;SDS011;11874;48.228;11.684;2022-07-30T08:09:33;7.72;;;5.78;;
23402;SDS011;11874;48.228;11.684;2022-07-30T08:12:10;8.38;;;6.00;;
23402;SDS011;11874;48.228;11.684;2022-07-30T08:14:38;8.23;;;6.35;;
23402;SDS011;11874;48.228;11.684;2022-07-30T08:17:05;10.05;;;5.93;;
23402;SDS011;11874;48.228;11.684;2022-07-30T08:19:35;9.13;;;6.85;;
23402;SDS011;11874;48.228;11.684;2022-07-30T08:22:03;8.18;;;6.80;;
23402;SDS011;11874;48.228;11.684;2022-07-30T08:24:31;11.93;;;7.10;;
23402;SDS011;11874;48.228;11.684;2022-07-30T08:26:59;6.60;;;5.78;;
23402;SDS011;11874;48.228;11.684;2022-07-30T08:29:28;10.68;;;7.32;;
23402;SDS011;11874;48.228;11.684;2022-07-30T08:31:56;9.52;;;7.18;;
23402;SDS011;11874;48.228;11.684;2022-07-30T08:34:24;8.23;;;6.07;;
23402;SDS011;11874;48.228;11.684;2022-07-30T08:36:53;9.32;;;6.97;;
23402;SDS011;11874;48.228;11.684;2022-07-30T08:39:21;7.55;;;6.30;;
23402;SDS011;11874;48.228;11.684;2022-07-30T08:41:49;9.27;;;6.70;;
23402;SDS011;11874;48.228;11.684;2022-07-30T08:44:17;11.10;;;6.65;;
23402;SDS011;11874;48.228;11.684;2022-07-30T08:46:47;9.23;;;5.72;;
23402;SDS011;11874;48.228;11.684;2022-07-30T08:49:17;9.52;;;6.45;;
23402;SDS011;11874;48.228;11.684;2022-07-30T08:51:45;9.35;;;5.05;;
23402;SDS011;11874;48.228;11.684;2022-07-30T08:54:16;7.03;;;5.55;;
23402;SDS011;11874;48.228;11.684;2022-07-30T08:56:45;7.38;;;5.40;;
23402;SDS011;11874;48.228;11.684;2022-07-30T08:59:15;8.80;;;4.90;;
23402;SDS011;11874;48.228;11.684;2022-07-30T09:01:43;6.72;;;5.57;;
23402;SDS011;11874;48.228;11.684;2022-07-30T09:04:11;6.38;;;5.43;;
23402;SDS011;11874;48.228;11.684;2022-07-30T09:06:40;9.15;;;5.75;;
23402;SDS011;11874;48.228;11.684;2022-07-30T09:09:08;8.95;;;5.35;;
23402;SDS011;11874;48.228;11.684;2022-07-30T09:11:37;7.07;;;5.18;;
23402;SDS011;11874;48.228;11.684;2022-07-30T09:14:08;5.97;;;4.63;;
23402;SDS011;11874;48.228;11.684;2022-07-30T09:16:37;5.55;;;5.05;;
23402;SDS011;11874;48.228;11.684;2022-07-30T09:19:12;6.13;;;5.50;;
23402;SDS011;11874;48.228;11.684;2022-07-30T09:21:53;7.15;;;5.05;;
23402;SDS011;11874;48.228;11.684;2022-07-30T09:24:22;8.13;;;5.10;;
23402;SDS011;11874;48.228;11.684;2022-07-30T09:26:52;6.32;;;4.57;;
23402;SDS011;11874;48.228;11.684;2022-07-30T09:29:23;6.95;;;5.13;;
23402;SDS011;11874;48.228;11.684;2022-07-30T09:31:54;6.50;;;4.97;;
23402;SDS011;11874;48.228;11.684;2022-07-30T09:34:24;7.50;;;4.40;;
23402;SDS011;11874;48.228;11.684;2022-07-30T09:36:53;5.85;;;4.57;;
23402;SDS011;11874;48.228;11.684;2022-07-30T09:39:32;5.32;;;4.40;;
23402;SDS011;11874;48.228;11.684;2022-07-30T09:42:02;5.05;;;4.18;;
23402;SDS011;11874;48.228;11.684;2022-07-30T09:44:31;8.70;;;5.00;;
23402;SDS011;11874;48.228;11.684;2022-07-30T09:46:59;6.30;;;4.25;;
23402;SDS011;11874;48.228;11.684;2022-07-30T09:49:29;6.07;;;4.70;;
23402;SDS011;11874;48.228;11.684;2022-07-30T09:51:58;8.45;;;4.50;;
23402;SDS011;11874;48.228;11.684;2022-07-30T09:54:43;5.88;;;4.30;;
23402;SDS011;11874;48.228;11.684;2022-07-30T09:57:19;5.35;;;4.07;;
23402;SDS011;11874;48.228;11.684;2022-07-30T10:00:17;6.72;;;3.70;;
23402;SDS011;11874;48.228;11.684;2022-07-30T10:02:49;4.90;;;3.97;;
23402;SDS011;11874;48.228;11.684;2022-07-30T10:05:17;5.53;;;4.10;;
23402;SDS011;11874;48.228;11.684;2022-07-30T10:07:47;4.20;;;3.80;;
23402;SDS011;11874;48.228;11.684;2022-07-30T10:10:18;4.50;;;3.60;;
23402;SDS011;11874;48.228;11.684;2022-07-30T10:12:53;7.43;;;4.10;;
23402;SDS011;11874;48.228;11.684;2022-07-30T10:15:25;4.90;;;4.07;;
23402;SDS011;11874;48.228;11.684;2022-07-30T10:17:57;5.63;;;4.25;;
23402;SDS011;11874;48.228;11.684;2022-07-30T10:20:27;5.47;;;3.90;;
23402;SDS011;11874;48.228;11.684;2022-07-30T10:22:57;6.65;;;3.80;;
23402;SDS011;11874;48.228;11.684;2022-07-30T10:25:33;4.50;;;3.72;;
23402;SDS011;11874;48.228;11.684;2022-07-30T10:28:16;3.60;;;3.30;;
23402;SDS011;11874;48.228;11.684;2022-07-30T10:30:44;3.33;;;2.45;;
23402;SDS011;11874;48.228;11.684;2022-07-30T10:33:16;4.40;;;3.10;;
23402;SDS011;11874;48.228;11.684;2022-07-30T10:36:02;6.45;;;3.30;;
23402;SDS011;11874;48.228;11.684;2022-07-30T10:38:30;6.68;;;3.20;;
23402;SDS011;11874;48.228;11.684;2022-07-30T10:41:05;8.10;;;2.80;;
23402;SDS011;11874;48.228;11.684;2022-07-30T10:46:53;9.20;;;2.92;;
23402;SDS011;11874;48.228;11.684;2022-07-30T10:49:32;3.58;;;2.65;;
23402;SDS011;11874;48.228;11.684;2022-07-30T10:52:17;5.82;;;2.83;;
23402;SDS011;11874;48.228;11.684;2022-07-30T10:55:11;3.97;;;2.90;;
23402;SDS011;11874;48.228;11.684;2022-07-30T10:57:57;4.00;;;2.90;;
23402;SDS011;11874;48.228;11.684;2022-07-30T11:00:26;4.55;;;2.53;;
23402;SDS011;11874;48.228;11.684;2022-07-30T11:05:47;4.43;;;2.78;;
23402;SDS011;11874;48.228;11.684;2022-07-30T11:08:30;7.07;;;2.33;;
23402;SDS011;11874;48.228;11.684;2022-07-30T11:11:01;4.60;;;2.40;;
23402;SDS011;11874;48.228;11.684;2022-07-30T11:13:51;4.25;;;2.60;;
23402;SDS011;11874;48.228;11.684;2022-07-30T11:16:21;3.50;;;2.40;;
23402;SDS011;11874;48.228;11.684;2022-07-30T11:19:01;2.22;;;2.10;;
23402;SDS011;11874;48.228;11.684;2022-07-30T11:24:53;4.90;;;2.20;;
23402;SDS011;11874;48.228;11.684;2022-07-30T11:27:37;4.13;;;2.20;;
23402;SDS011;11874;48.228;11.684;2022-07-30T11:33:20;3.72;;;2.30;;
23402;SDS011;11874;48.228;11.684;2022-07-30T11:36:05;3.03;;;2.10;;
23402;SDS011;11874;48.228;11.684;2022-07-30T11:38:51;2.88;;;1.95;;
23402;SDS011;11874;48.228;11.684;2022-07-30T11:46:56;6.20;;;2.05;;
23402;SDS011;11874;48.228;11.684;2022-07-30T11:49:25;3.38;;;1.83;;
23402;SDS011;11874;48.228;11.684;2022-07-30T11:52:05;1.80;;;1.70;;
23402;SDS011;11874;48.228;11.684;2022-07-30T11:54:48;2.72;;;2.00;;
23402;SDS011;11874;48.228;11.684;2022-07-30T11:57:19;3.47;;;2.00;;
23402;SDS011;11874;48.228;11.684;2022-07-30T11:59:52;2.22;;;1.92;;
23402;SDS011;11874;48.228;11.684;2022-07-30T12:02:25;3.45;;;1.90;;
23402;SDS011;11874;48.228;11.684;2022-07-30T12:04:53;2.58;;;1.70;;
23402;SDS011;11874;48.228;11.684;2022-07-30T12:07:21;2.17;;;1.80;;
23402;SDS011;11874;48.228;11.684;2022-07-30T12:09:49;4.80;;;1.50;;
23402;SDS011;11874;48.228;11.684;2022-07-30T12:12:22;3.22;;;1.40;;
23402;SDS011;11874;48.228;11.684;2022-07-30T12:14:50;3.33;;;2.03;;
23402;SDS011;11874;48.228;11.684;2022-07-30T12:17:18;2.58;;;1.77;;
23402;SDS011;11874;48.228;11.684;2022-07-30T12:19:48;5.15;;;1.85;;
23402;SDS011;11874;48.228;11.684;2022-07-30T12:22:16;3.50;;;2.13;;
23402;SDS011;11874;48.228;11.684;2022-07-30T12:24:44;3.05;;;1.98;;
23402;SDS011;11874;48.228;11.684;2022-07-30T12:27:12;2.78;;;2.08;;
23402;SDS011;11874;48.228;11.684;2022-07-30T12:29:41;3.35;;;2.42;;
23402;SDS011;11874;48.228;11.684;2022-07-30T12:32:09;3.55;;;2.72;;
23402;SDS011;11874;48.228;11.684;2022-07-30T12:34:37;3.78;;;2.30;;
23402;SDS011;11874;48.228;11.684;2022-07-30T12:37:05;4.03;;;2.03;;
23402;SDS011;11874;48.228;11.684;2022-07-30T12:39:35;1.80;;;1.50;;
23402;SDS011;11874;48.228;11.684;2022-07-30T12:42:03;1.98;;;1.52;;
23402;SDS011;11874;48.228;11.684;2022-07-30T12:44:35;2.25;;;1.40;;
23402;SDS011;11874;48.228;11.684;2022-07-30T12:47:09;1.67;;;1.58;;
23402;SDS011;11874;48.228;11.684;2022-07-30T12:49:46;2.10;;;1.60;;
23402;SDS011;11874;48.228;11.684;2022-07-30T12:52:19;2.40;;;1.60;;
23402;SDS011;11874;48.228;11.684;2022-07-30T12:55:02;3.10;;;1.67;;
23402;SDS011;11874;48.228;11.684;2022-07-30T13:00:20;3.33;;;1.70;;
23402;SDS011;11874;48.228;11.684;2022-07-30T13:02:50;4.05;;;1.77;;
23402;SDS011;11874;48.228;11.684;2022-07-30T13:05:18;2.83;;;2.05;;
23402;SDS011;11874;48.228;11.684;2022-07-30T13:07:53;3.13;;;1.80;;
23402;SDS011;11874;48.228;11.684;2022-07-30T13:10:22;2.70;;;1.85;;
23402;SDS011;11874;48.228;11.684;2022-07-30T13:12:56;2.53;;;1.95;;
23402;SDS011;11874;48.228;11.684;2022-07-30T13:15:24;2.78;;;1.85;;
23402;SDS011;11874;48.228;11.684;2022-07-30T13:17:53;2.00;;;1.80;;
23402;SDS011;11874;48.228;11.684;2022-07-30T13:20:21;3.47;;;1.90;;
23402;SDS011;11874;48.228;11.684;2022-07-30T13:22:49;3.38;;;1.92;;
23402;SDS011;11874;48.228;11.684;2022-07-30T13:25:17;3.30;;;1.92;;
23402;SDS011;11874;48.228;11.684;2022-07-30T13:27:45;3.75;;;1.70;;
23402;SDS011;11874;48.228;11.684;2022-07-30T13:30:13;3.13;;;2.00;;
23402;SDS011;11874;48.228;11.684;2022-07-30T13:32:41;2.72;;;1.85;;
23402;SDS011;11874;48.228;11.684;2022-07-30T13:35:10;2.50;;;2.13;;
23402;SDS011;11874;48.228;11.684;2022-07-30T13:37:38;5.18;;;2.17;;
23402;SDS011;11874;48.228;11.684;2022-07-30T13:40:07;2.30;;;1.90;;
23402;SDS011;11874;48.228;11.684;2022-07-30T13:42:36;3.17;;;2.15;;
23402;SDS011;11874;48.228;11.684;2022-07-30T13:45:04;4.07;;;2.20;;
23402;SDS011;11874;48.228;11.684;2022-07-30T13:47:33;8.27;;;2.00;;
23402;SDS011;11874;48.228;11.684;2022-07-30T13:50:01;2.67;;;1.95;;
23402;SDS011;11874;48.228;11.684;2022-07-30T13:52:30;3.35;;;2.40;;
23402;SDS011;11874;48.228;11.684;2022-07-30T13:54:58;3.80;;;1.88;;
23402;SDS011;11874;48.228;11.684;2022-07-30T13:57:26;4.70;;;1.90;;
23402;SDS011;11874;48.228;11.684;2022-07-30T13:59:54;3.15;;;1.90;;
23402;SDS011;11874;48.228;11.684;2022-07-30T14:02:22;2.53;;;1.90;;
23402;SDS011;11874;48.228;11.684;2022-07-30T14:04:50;2.40;;;1.90;;
23402;SDS011;11874;48.228;11.684;2022-07-30T14:07:18;3.65;;;1.88;;
23402;SDS011;11874;48.228;11.684;2022-07-30T14:09:47;3.17;;;2.22;;
23402;SDS011;11874;48.228;11.684;2022-07-30T14:12:19;4.78;;;2.08;;
23402;SDS011;11874;48.228;11.684;2022-07-30T14:14:47;3.25;;;1.85;;
23402;SDS011;11874;48.228;11.684;2022-07-30T14:17:15;2.70;;;1.80;;
23402;SDS011;11874;48.228;11.684;2022-07-30T14:19:43;1.83;;;1.73;;
23402;SDS011;11874;48.228;11.684;2022-07-30T14:22:11;2.80;;;1.95;;
23402;SDS011;11874;48.228;11.684;2022-07-30T14:24:39;2.88;;;1.90;;
23402;SDS011;11874;48.228;11.684;2022-07-30T14:27:08;3.75;;;1.83;;
23402;SDS011;11874;48.228;11.684;2022-07-30T14:29:36;2.38;;;1.75;;
23402;SDS011;11874;48.228;11.684;2022-07-30T14:32:04;2.90;;;1.65;;
23402;SDS011;11874;48.228;11.684;2022-07-30T14:34:32;2.67;;;1.90;;
23402;SDS011;11874;48.228;11.684;2022-07-30T14:37:00;2.42;;;1.90;;
23402;SDS011;11874;48.228;11.684;2022-07-30T14:39:28;2.80;;;1.85;;
23402;SDS011;11874;48.228;11.684;2022-07-30T14:41:56;2.30;;;1.80;;
23402;SDS011;11874;48.228;11.684;2022-07-30T14:44:25;2.22;;;1.90;;
23402;SDS011;11874;48.228;11.684;2022-07-30T14:46:53;1.77;;;1.67;;
23402;SDS011;11874;48.228;11.684;2022-07-30T14:49:21;1.95;;;1.80;;
23402;SDS011;11874;48.228;11.684;2022-07-30T14:51:50;3.55;;;1.80;;
23402;SDS011;11874;48.228;11.684;2022-07-30T14:54:18;5.03;;;1.80;;
23402;SDS011;11874;48.228;11.684;2022-07-30T14:56:47;2.03;;;1.60;;
23402;SDS011;11874;48.228;11.684;2022-07-30T14:59:21;2.50;;;1.50;;
23402;SDS011;11874;48.228;11.684;2022-07-30T15:01:50;2.15;;;1.80;;
23402;SDS011;11874;48.228;11.684;2022-07-30T15:04:18;2.00;;;1.60;;
23402;SDS011;11874;48.228;11.684;2022-07-30T15:06:46;2.38;;;1.55;;
23402;SDS011;11874;48.228;11.684;2022-07-30T15:09:14;3.28;;;1.80;;
23402;SDS011;11874;48.228;11.684;2022-07-30T15:11:42;2.20;;;1.63;;
23402;SDS011;11874;48.228;11.684;2022-07-30T15:14:30;3.60;;;1.88;;
23402;SDS011;11874;48.228;11.684;2022-07-30T15:16:59;3.97;;;1.55;;